Terminal Aerodrome Forecast
Issued by NWS Melbourne, FL

Home | Current Version | Previous Version | Text Only | Print | Product List | Glossary On
Versions: 1 2 3 4 5 6 7 8 9 10 11 12 13 14 15 16 17 18 19 20 21 22 23 24 25 26 27 28
000
FTUS42 KMLB 042326
TAFVRB
TAF
KVRB 042326Z 0500/0524 18010KT 6SM -RA SCT025 BKN100
      TEMPO 0500/0502 3SM TSRA SCT015CB BKN025
     FM050300 25010KT P6SM SCT025 BKN060
     FM050600 28014KT P6SM SCT060
     FM051500 29015G22KT P6SM FEW035=

USA.gov is the U.S. government's official web portal to all federal, state and local government web resources and services.